Time;durP1;ratioP1;P1;durP2;ratioP2;P2;SDS_P1;SDS_P2;PMS_P1;PMS_P2;Temp;Humidity;BMP_temperature;BMP_pressure;BME280_temperature;BME280_humidity;BME280_pressure;Samples;Min_cycle;Max_cycle;Signal;HPM_P1;HPM_P2
2021/01/16 00:01:07;;;;;;;19.77;9.58;;;;;;;-12.48;94.70;100656.91;1803606;79;21131;-83
2021/01/16 00:03:35;;;;;;;19.57;8.28;;;;;;;-12.45;94.71;100668.25;1803683;79;21524;-82
2021/01/16 00:06:04;;;;;;;19.45;10.00;;;;;;;-12.43;94.59;100667.87;1803624;79;21292;-82
2021/01/16 00:08:32;;;;;;;20.77;9.35;;;;;;;-12.43;94.31;100663.28;1803553;78;21084;-82
2021/01/16 00:11:01;;;;;;;18.15;8.33;;;;;;;-12.45;93.72;100665.73;1803614;79;22124;-83
2021/01/16 00:13:34;;;;;;;18.67;8.65;;;;;;;-12.53;93.38;100665.99;1803691;79;21190;-82
2021/01/16 00:16:04;;;;;;;16.10;7.97;;;;;;;-12.61;93.17;100668.36;1803573;79;21139;-83
2021/01/16 00:18:32;;;;;;;19.90;8.05;;;;;;;-12.65;93.38;100668.27;1799712;79;24907;-82
2021/01/16 00:21:01;;;;;;;16.50;7.15;;;;;;;-12.69;93.43;100671.95;1797950;79;21151;-84
2021/01/16 00:23:29;;;;;;;17.42;7.92;;;;;;;-12.71;93.62;100679.02;1798032;79;21563;-84
2021/01/16 00:25:59;;;;;;;17.92;8.30;;;;;;;-12.76;93.31;100674.32;1797952;79;21076;-84
2021/01/16 00:28:32;;;;;;;19.32;7.33;;;;;;;-12.82;93.55;100680.05;1798053;79;21064;-82
2021/01/16 00:31:03;;;;;;;16.52;6.08;;;;;;;-12.81;93.79;100681.75;1797944;79;21346;-82
2021/01/16 00:33:33;;;;;;;13.98;5.80;;;;;;;-12.79;94.06;100687.65;1798146;79;21555;-82
2021/01/16 00:36:06;;;;;;;12.43;5.08;;;;;;;-12.71;94.28;100686.16;1798096;79;21104;-82
2021/01/16 00:38:40;;;;;;;12.88;5.90;;;;;;;-12.63;94.39;100687.97;1798147;79;21064;-82
2021/01/16 00:41:09;;;;;;;14.80;7.00;;;;;;;-12.57;94.43;100689.34;1798189;79;21155;-82
2021/01/16 00:43:37;;;;;;;15.18;7.33;;;;;;;-12.50;94.29;100683.64;1798101;79;21202;-82
2021/01/16 00:46:06;;;;;;;20.23;9.43;;;;;;;-12.48;93.95;100675.73;1798229;79;21163;-82
2021/01/16 00:48:34;;;;;;;14.40;6.50;;;;;;;-12.48;93.68;100675.73;1798108;79;21132;-83
2021/01/16 00:51:02;;;;;;;18.42;8.03;;;;;;;-12.49;93.40;100670.67;1775954;79;21223;-83
2021/01/16 00:53:32;;;;;;;19.27;8.53;;;;;;;-12.57;92.72;100670.53;1795238;79;21594;-82
2021/01/16 00:56:02;;;;;;;14.53;7.05;;;;;;;-12.72;92.44;100668.15;1794932;79;21203;-83
2021/01/16 00:58:31;;;;;;;17.52;7.25;;;;;;;-12.82;92.68;100668.76;1798175;79;21060;-82
2021/01/16 01:01:09;;;;;;;21.10;7.95;;;;;;;-12.84;93.09;100672.89;1872670;76;22783;-82
2021/01/16 01:03:38;;;;;;;20.55;8.73;;;;;;;-12.86;93.68;100685.83;1840658;77;21054;-84
2021/01/16 01:06:07;;;;;;;22.67;9.53;;;;;;;-12.85;93.83;100673.70;1840577;77;21485;-84
2021/01/16 01:08:35;;;;;;;26.85;11.43;;;;;;;-12.93;93.66;100677.31;1840497;77;21041;-84
2021/01/16 01:11:03;;;;;;;27.30;12.47;;;;;;;-12.98;94.03;100670.49;1840587;77;21426;-84
2021/01/16 01:13:31;;;;;;;33.95;12.93;;;;;;;-13.02;94.55;100670.41;1840505;77;21054;-84
2021/01/16 01:15:58;;;;;;;29.45;13.55;;;;;;;-13.00;95.33;100671.72;1840615;77;21327;-84
2021/01/16 01:18:27;;;;;;;28.98;12.85;;;;;;;-12.98;95.99;100675.51;1840707;77;22136;-84
2021/01/16 01:20:55;;;;;;;36.95;14.30;;;;;;;-13.00;96.18;100677.58;1840362;77;21608;-84
2021/01/16 01:23:22;;;;;;;27.87;12.43;;;;;;;-13.00;96.52;100685.09;1840592;77;21177;-84
2021/01/16 01:25:50;;;;;;;33.55;12.70;;;;;;;-13.00;96.79;100690.11;1840472;77;21125;-84
2021/01/16 01:28:18;;;;;;;30.20;14.10;;;;;;;-13.02;96.81;100686.71;1840536;77;21200;-84
2021/01/16 01:30:48;;;;;;;37.25;15.25;;;;;;;-13.05;96.89;100687.91;1840632;77;21173;-82
2021/01/16 01:33:16;;;;;;;34.23;15.08;;;;;;;-13.06;97.26;100688.72;1840651;77;21220;-82
2021/01/16 01:35:45;;;;;;;35.90;15.23;;;;;;;-13.07;97.55;100693.72;1840461;77;21161;-82
2021/01/16 01:41:01;;;;;;;43.80;17.32;;;;;;;-13.00;98.46;100692.61;1872501;76;22321;-84
2021/01/16 01:43:28;;;;;;;51.30;19.23;;;;;;;-13.04;98.55;100693.38;1840665;77;21129;-84
2021/01/16 01:45:56;;;;;;;35.50;15.15;;;;;;;-13.05;98.76;100695.83;1840651;77;21509;-84
2021/01/16 01:48:25;;;;;;;37.93;16.40;;;;;;;-13.07;99.05;100694.97;1840565;77;21442;-84
2021/01/16 01:50:53;;;;;;;45.08;16.42;;;;;;;-13.04;99.45;100697.52;1840500;77;21097;-82
2021/01/16 01:53:23;;;;;;;35.70;14.47;;;;;;;-13.02;99.85;100697.16;1840631;77;20998;-82
2021/01/16 01:55:55;;;;;;;37.98;14.73;;;;;;;-12.96;99.97;100699.80;1840670;77;21327;-84
2021/01/16 01:58:25;;;;;;;32.38;14.47;;;;;;;-12.95;99.82;100702.75;1837047;77;21164;-83
2021/01/16 02:00:54;;;;;;;35.55;14.43;;;;;;;-12.97;99.79;100701.86;1840554;77;21121;-83
2021/01/16 02:03:26;;;;;;;31.10;13.38;;;;;;;-12.97;99.87;100705.63;1840608;77;21198;-83
2021/01/16 02:05:57;;;;;;;37.75;13.93;;;;;;;-12.97;99.83;100704.79;1840490;77;21117;-83
2021/01/16 02:08:25;;;;;;;32.23;14.07;;;;;;;-12.96;99.83;100698.97;1840602;77;21042;-83
2021/01/16 02:10:53;;;;;;;32.55;13.98;;;;;;;-12.97;100.00;100704.79;1840562;77;21355;-83
2021/01/16 02:13:21;;;;;;;34.00;13.40;;;;;;;-13.01;100.00;100697.19;1840511;77;21157;-83
2021/01/16 02:15:57;;;;;;;29.82;12.10;;;;;;;-13.00;100.00;100705.16;1840472;77;21169;-83
2021/01/16 02:18:30;;;;;;;34.90;14.10;;;;;;;-12.99;100.00;100704.77;1840620;77;21176;-83
2021/01/16 02:21:01;;;;;;;29.05;12.13;;;;;;;-12.94;100.00;100707.38;1840499;77;21129;-83
2021/01/16 02:23:53;;;;;;;39.50;14.23;;;;;;;-12.89;100.00;100712.08;1840390;77;21201;-83
2021/01/16 02:26:43;;;;;;;30.43;14.35;;;;;;;-12.89;100.00;100712.08;1840429;77;21141;-84
2021/01/16 02:29:11;;;;;;;31.55;13.03;;;;;;;-12.88;100.00;100717.12;1840557;77;21541;-84
2021/01/16 02:31:49;;;;;;;26.37;11.63;;;;;;;-12.85;100.00;100718.84;1840524;78;21117;-84
2021/01/16 02:34:21;;;;;;;30.55;12.20;;;;;;;-12.87;100.00;100712.55;1833688;77;21172;-84
2021/01/16 02:37:19;;;;;;;31.02;12.50;;;;;;;-12.88;100.00;100720.05;1840516;77;22241;-82
2021/01/16 02:40:01;;;;;;;26.02;11.55;;;;;;;-12.91;100.00;100716.20;1840498;77;21173;-83
2021/01/16 02:43:10;;;;;;;24.25;11.45;;;;;;;-12.92;100.00;100719.52;1838076;77;21164;-83
2021/01/16 02:45:45;;;;;;;30.12;12.40;;;;;;;-12.93;100.00;100712.80;1836314;77;21062;-84
2021/01/16 02:48:27;;;;;;;26.42;12.68;;;;;;;-12.95;100.00;100715.29;1840488;77;21196;-83
2021/01/16 02:50:55;;;;;;;26.82;11.60;;;;;;;-12.95;100.00;100719.47;1840204;77;21420;-83
2021/01/16 02:53:24;;;;;;;27.10;13.22;;;;;;;-12.92;100.00;100717.02;1840060;77;21121;-83
2021/01/16 02:55:53;;;;;;;29.50;12.78;;;;;;;-12.92;100.00;100725.41;1839937;77;22028;-83
2021/01/16 02:58:21;;;;;;;29.37;12.82;;;;;;;-12.98;100.00;100731.54;1839928;77;21127;-83
2021/01/16 03:00:49;;;;;;;29.32;11.78;;;;;;;-13.04;100.00;100738.89;1839789;77;21216;-83
2021/01/16 03:03:17;;;;;;;32.05;14.20;;;;;;;-13.09;100.00;100740.45;1839999;77;22268;-83
2021/01/16 03:05:45;;;;;;;28.73;13.03;;;;;;;-13.16;100.00;100746.97;1839814;77;21556;-84
2021/01/16 03:08:12;;;;;;;30.65;13.03;;;;;;;-13.21;100.00;100751.04;1839833;77;21122;-83
2021/01/16 03:10:41;;;;;;;28.10;12.20;;;;;;;-13.26;100.00;100745.91;1809901;78;21065;-83
2021/01/16 03:13:10;;;;;;;29.65;13.45;;;;;;;-13.25;100.00;100756.77;1839962;77;21106;-83
2021/01/16 03:15:39;;;;;;;29.18;13.48;;;;;;;-13.26;100.00;100758.45;1839971;77;22345;-83
2021/01/16 03:18:08;;;;;;;28.35;12.47;;;;;;;-13.26;100.00;100755.94;1809870;78;21577;-83
2021/01/16 03:20:38;;;;;;;31.90;13.05;;;;;;;-13.28;100.00;100756.30;1840048;77;20951;-83
2021/01/16 03:23:06;;;;;;;29.42;12.82;;;;;;;-13.26;100.00;100757.61;1839930;77;21121;-83
2021/01/16 03:25:33;;;;;;;32.17;12.98;;;;;;;-13.22;100.00;100760.62;1839897;77;21114;-83
2021/01/16 03:28:03;;;;;;;25.82;11.75;;;;;;;-13.19;100.00;100762.79;1839910;77;21422;-83
2021/01/16 03:30:31;;;;;;;30.55;11.90;;;;;;;-13.16;100.00;100764.52;1839848;77;21165;-83
2021/01/16 03:32:59;;;;;;;26.07;11.12;;;;;;;-13.12;100.00;100763.80;1839813;77;21141;-83
2021/01/16 03:35:28;;;;;;;32.35;12.35;;;;;;;-13.08;100.00;100764.72;1839904;77;21569;-83
2021/01/16 03:37:57;;;;;;;24.30;11.22;;;;;;;-13.04;100.00;100768.59;1839857;78;21125;-83
2021/01/16 03:40:25;;;;;;;30.65;12.07;;;;;;;-13.00;100.00;100762.83;1839802;76;21373;-83
2021/01/16 03:42:54;;;;;;;24.45;11.25;;;;;;;-12.97;100.00;100771.23;1839802;77;21077;-83
2021/01/16 03:45:23;;;;;;;26.12;12.65;;;;;;;-12.93;100.00;100762.96;1839815;77;21066;-83
2021/01/16 03:47:51;;;;;;;29.55;12.60;;;;;;;-12.86;100.00;100776.11;1839780;77;21160;-84
2021/01/16 03:50:21;;;;;;;32.58;12.95;;;;;;;-12.83;100.00;100763.63;1839748;77;21121;-83
2021/01/16 03:52:48;;;;;;;26.30;11.93;;;;;;;-12.78;100.00;100755.81;1839883;77;21498;-83
2021/01/16 03:55:16;;;;;;;25.27;11.15;;;;;;;-12.70;100.00;100755.97;1839866;77;21086;-83
2021/01/16 03:57:44;;;;;;;26.23;11.70;;;;;;;-12.63;100.00;100761.56;1839940;77;21593;-83
2021/01/16 04:00:12;;;;;;;28.67;12.55;;;;;;;-12.55;100.00;100755.05;1839756;77;21114;-83
2021/01/16 04:02:40;;;;;;;28.50;12.13;;;;;;;-12.50;100.00;100748.05;1839421;77;21184;-84
2021/01/16 04:05:10;;;;;;;34.43;13.98;;;;;;;-12.48;100.00;100757.69;1839872;77;21565;-83
2021/01/16 04:07:37;;;;;;;32.83;13.43;;;;;;;-12.45;100.00;100758.59;1839751;77;21184;-83
2021/01/16 04:10:06;;;;;;;25.77;12.35;;;;;;;-12.41;100.00;100757.00;1839928;78;21109;-83
2021/01/16 04:12:34;;;;;;;40.30;14.85;;;;;;;-12.36;100.00;100755.45;1839795;77;21135;-83
2021/01/16 04:15:04;;;;;;;35.58;13.88;;;;;;;-12.32;100.00;100751.34;1839834;77;21514;-84
2021/01/16 04:17:32;;;;;;;33.53;13.78;;;;;;;-12.31;100.00;100753.04;1839744;77;21346;-83
2021/01/16 04:20:00;;;;;;;27.50;13.88;;;;;;;-12.35;100.00;100755.03;1839609;77;21205;-83
2021/01/16 04:22:27;;;;;;;25.95;12.30;;;;;;;-12.39;100.00;100753.73;1839724;77;21169;-84
2021/01/16 04:24:55;;;;;;;32.63;14.03;;;;;;;-12.38;100.00;100767.95;1839751;77;21177;-84
2021/01/16 04:27:23;;;;;;;26.70;12.93;;;;;;;-12.37;100.00;100765.88;1839734;77;21149;-84
2021/01/16 04:29:51;;;;;;;30.65;13.22;;;;;;;-12.39;100.00;100765.02;1839912;77;21120;-84
2021/01/16 04:32:19;;;;;;;24.90;12.20;;;;;;;-12.37;100.00;100768.39;1839841;77;21130;-83
2021/01/16 04:34:48;;;;;;;30.02;12.47;;;;;;;-12.34;100.00;100767.64;1839837;77;21149;-83
2021/01/16 04:37:15;;;;;;;34.48;13.88;;;;;;;-12.33;100.00;100770.56;1839723;77;21081;-83
2021/01/16 04:39:43;;;;;;;30.68;13.58;;;;;;;-12.30;100.00;100772.31;1839680;77;21118;-83
2021/01/16 04:42:14;;;;;;;28.50;11.73;;;;;;;-12.28;100.00;100774.42;1839800;77;21548;-83
2021/01/16 04:44:45;;;;;;;30.15;12.68;;;;;;;-12.30;100.00;100768.13;1839907;77;21213;-84
2021/01/16 04:47:23;;;;;;;29.72;13.48;;;;;;;-12.28;100.00;100774.03;1839748;78;21126;-83
2021/01/16 04:49:52;;;;;;;28.77;12.03;;;;;;;-12.25;100.00;100779.52;1837685;78;21146;-83
2021/01/16 04:52:29;;;;;;;34.45;14.07;;;;;;;-12.27;100.00;100784.91;1839930;77;21161;-84
2021/01/16 04:54:58;;;;;;;32.15;13.85;;;;;;;-12.27;100.00;100781.14;1807495;77;22278;-84
2021/01/16 04:57:31;;;;;;;31.77;15.95;;;;;;;-12.25;100.00;100790.39;1828445;77;21472;-83
2021/01/16 04:59:57;;;;;;;28.12;13.43;;;;;;;-12.23;100.00;100795.47;1808462;77;21146;-83
2021/01/16 05:02:25;;;;;;;31.20;15.43;;;;;;;-12.20;100.00;100803.05;1815718;77;21471;-83
2021/01/16 05:04:56;;;;;;;34.38;15.55;;;;;;;-12.17;100.00;100809.40;1839846;77;21144;-83
2021/01/16 05:07:24;;;;;;;35.13;14.98;;;;;;;-12.16;100.00;100809.84;1835657;77;22267;-83
2021/01/16 05:09:54;;;;;;;41.25;15.98;;;;;;;-12.15;100.00;100807.78;1839551;78;21573;-83
2021/01/16 05:12:34;;;;;;;38.48;16.67;;;;;;;-12.11;100.00;100812.03;1809730;78;21149;-83
2021/01/16 05:15:21;;;;;;;33.80;14.95;;;;;;;-12.09;100.00;100814.17;1839613;77;21447;-84
2021/01/16 05:18:06;;;;;;;33.38;15.08;;;;;;;-12.05;100.00;100812.16;1838124;78;21141;-83
2021/01/16 05:20:37;;;;;;;36.80;15.18;;;;;;;-12.01;100.00;100806.78;1839122;77;21379;-84
2021/01/16 05:23:12;;;;;;;29.05;14.05;;;;;;;-12.00;100.00;100805.97;1839215;77;21153;-83
2021/01/16 05:25:50;;;;;;;24.55;10.38;;;;;;;-11.97;100.00;100811.07;1839849;78;21146;-84
2021/01/16 05:28:23;;;;;;;33.20;15.43;;;;;;;-11.92;100.00;100819.92;1834153;77;21153;-83
2021/01/16 05:31:02;;;;;;;29.55;13.38;;;;;;;-11.89;100.00;100810.78;1839789;77;21601;-84
2021/01/16 05:33:40;;;;;;;33.08;13.70;;;;;;;-11.86;100.00;100814.18;1835841;78;21430;-84
2021/01/16 05:36:09;;;;;;;31.85;12.60;;;;;;;-11.84;100.00;100813.78;1825533;76;21158;-83
2021/01/16 05:38:40;;;;;;;30.80;13.80;;;;;;;-11.84;100.00;100812.13;1839686;77;21161;-83
2021/01/16 05:41:12;;;;;;;;;;;;;;;-11.84;100.00;100813.39;1819436;77;21174;-83
2021/01/16 05:43:43;;;;;;;28.80;12.13;;;;;;;-11.83;100.00;100824.27;1839758;77;20206;-83
2021/01/16 05:46:15;;;;;;;30.05;13.13;;;;;;;-11.81;100.00;100826.41;1839597;77;21180;-83
2021/01/16 05:48:49;;;;;;;26.10;11.75;;;;;;;-11.78;100.00;100832.77;1839659;77;21172;-83
2021/01/16 05:51:17;;;;;;;30.43;14.83;;;;;;;-11.74;100.00;100834.51;1835584;77;21113;-83
2021/01/16 05:53:47;;;;;;;27.15;11.88;;;;;;;-11.68;100.00;100830.02;1839605;77;21113;-84
2021/01/16 05:56:16;;;;;;;;;;;;;;;-11.64;100.00;100828.86;1782766;78;21263;-84
2021/01/16 05:58:45;;;;;;;20.85;9.83;;;;;;;-11.58;100.00;100830.64;1823442;77;21358;-84
2021/01/16 06:01:24;;;;;;;27.85;12.37;;;;;;;-11.57;100.00;100833.56;1789625;78;21584;-89
2021/01/16 06:03:58;;;;;;;25.77;10.60;;;;;;;-11.53;100.00;100834.47;1828735;78;21234;-88
2021/01/16 06:06:34;;;;;;;25.23;11.45;;;;;;;-11.48;100.00;100836.69;1838257;77;21552;-87
2021/01/16 06:09:04;;;;;;;27.67;12.45;;;;;;;-11.42;100.00;100836.40;1831972;76;21144;-87
2021/01/16 06:11:38;;;;;;;24.63;10.72;;;;;;;-11.39;100.00;100841.89;1819301;76;21350;-88
2021/01/16 06:14:07;;;;;;;28.75;11.93;;;;;;;-11.39;100.00;100846.05;1823057;76;21156;-88
2021/01/16 06:16:51;;;;;;;24.37;11.93;;;;;;;-11.35;100.00;100862.48;1824081;76;21117;-88
2021/01/16 06:19:23;;;;;;;25.97;12.85;;;;;;;-11.30;100.00;100861.31;1826427;76;21158;-89
2021/01/16 06:21:53;;;;;;;29.48;13.80;;;;;;;-11.22;100.00;100861.05;1823948;76;21111;-88
2021/01/16 06:24:24;;;;;;;28.57;13.30;;;;;;;-11.16;100.00;100869.95;1824005;76;22332;-89
2021/01/16 06:27:00;;;;;;;37.23;15.90;;;;;;;-11.10;100.00;100865.05;1824558;78;21074;-89
2021/01/16 06:29:35;;;;;;;38.08;15.60;;;;;;;-11.07;99.93;100857.10;1818656;76;21549;-88
2021/01/16 06:32:11;;;;;;;33.13;14.53;;;;;;;-11.04;99.81;100863.03;1809133;78;21117;-87
2021/01/16 06:34:42;;;;;;;30.65;13.32;;;;;;;-10.98;99.92;100859.78;1806924;78;21585;-88
2021/01/16 06:37:14;;;;;;;22.45;11.00;;;;;;;-10.91;99.90;100864.52;1806973;78;22104;-88
2021/01/16 06:39:46;;;;;;;25.20;11.30;;;;;;;-10.81;100.00;100865.08;1806969;78;21185;-89
2021/01/16 06:42:24;;;;;;;25.20;12.43;;;;;;;-10.65;100.00;100863.68;1824589;78;21550;-89
2021/01/16 06:45:05;;;;;;;26.12;12.28;;;;;;;-10.43;100.00;100874.08;1754144;81;21204;-86
2021/01/16 06:47:34;;;;;;;26.60;12.78;;;;;;;-9.93;100.00;100865.10;1765672;80;21132;-87
2021/01/16 06:50:06;;;;;;;31.73;13.80;;;;;;;-9.43;100.00;100869.48;1767802;79;21323;-87
2021/01/16 06:52:40;;;;;;;34.33;13.60;;;;;;;-9.02;100.00;100864.03;1771361;79;21514;-89
2021/01/16 06:55:08;;;;;;;26.75;13.48;;;;;;;-8.67;100.00;100860.94;1753023;81;21219;-89
2021/01/16 06:57:36;;;;;;;30.43;15.38;;;;;;;-8.35;100.00;100853.16;1778911;80;21060;-89
2021/01/16 07:00:09;;;;;;;36.05;14.28;;;;;;;-8.02;100.00;100846.18;1756369;81;21652;-88
2021/01/16 07:02:40;;;;;;;39.00;17.85;;;;;;;-7.64;100.00;100854.34;1778900;80;21123;-88
2021/01/16 07:05:20;;;;;;;40.70;21.07;;;;;;;-7.30;100.00;100859.95;1778628;80;21164;-87
2021/01/16 07:07:54;;;;;;;38.98;19.55;;;;;;;-7.17;100.00;100864.19;1779056;80;21160;-88
2021/01/16 07:10:31;;;;;;;33.08;17.98;;;;;;;-7.14;100.00;100875.60;1757953;80;21187;-88
2021/01/16 07:13:00;;;;;;;41.92;19.77;;;;;;;-7.09;100.00;100870.52;1763339;79;21146;-89
2021/01/16 07:15:29;;;;;;;29.50;15.83;;;;;;;-7.11;100.00;100870.96;1755404;79;21138;-89
2021/01/16 07:18:01;;;;;;;45.48;19.32;;;;;;;-7.12;100.00;100883.19;1759805;80;21590;-89
2021/01/16 07:20:30;;;;;;;;;;;;;;;-7.13;100.00;100881.50;1771928;80;21181;-89
2021/01/16 07:22:59;;;;;;;37.93;16.50;;;;;;;-7.15;100.00;100887.83;1770212;79;20222;-89
2021/01/16 07:25:27;;;;;;;38.08;16.65;;;;;;;-7.26;100.00;100892.44;1750407;80;21088;-88
2021/01/16 07:27:55;;;;;;;36.48;19.05;;;;;;;-7.34;100.00;100892.00;1749598;80;21190;-89
2021/01/16 07:30:26;;;;;;;42.15;18.77;;;;;;;-7.42;100.00;100889.00;1749581;81;21716;-89
2021/01/16 07:32:53;;;;;;;;;;;;;;;-7.64;100.00;100894.81;1781156;79;21202;-89
2021/01/16 07:35:24;;;;;;;44.08;19.00;;;;;;;-7.78;100.00;100896.04;1780608;79;20481;-89
2021/01/16 07:37:53;;;;;;;;;;;;;;;-7.82;100.00;100899.80;1779348;80;21187;-89
2021/01/16 07:40:27;;;;;;;82.40;19.67;;;;;;;-7.84;100.00;100896.41;1780033;79;21214;-89
2021/01/16 07:43:05;;;;;;;67.10;19.65;;;;;;;-7.84;100.00;100900.21;1796092;78;21149;-87
2021/01/16 07:48:21;;;;;;;38.48;17.40;;;;;;;-7.66;100.00;100899.45;1888964;76;23309;-88
2021/01/16 07:50:52;;;;;;;35.90;18.30;;;;;;;-7.53;100.00;100906.67;1851289;77;21156;-88
2021/01/16 07:53:27;;;;;;;34.33;18.80;;;;;;;-7.42;100.00;100906.31;1822410;78;21375;-89
2021/01/16 07:56:18;;;;;;;40.65;18.60;;;;;;;-7.31;100.00;100893.69;1823044;78;21575;-88
2021/01/16 07:59:14;;;;;;;42.27;18.92;;;;;;;-7.25;100.00;100887.81;1821543;78;21620;-87
2021/01/16 08:02:10;;;;;;;39.38;19.57;;;;;;;-7.18;99.92;100884.45;1845075;77;21119;-88
2021/01/16 08:05:04;;;;;;;37.38;16.62;;;;;;;-7.24;98.54;100877.67;1788407;80;21155;-89
2021/01/16 08:07:38;;;;;;;30.45;15.15;;;;;;;-7.36;94.91;100882.69;1839083;78;22181;-89
2021/01/16 08:10:13;;;;;;;25.68;13.43;;;;;;;-7.46;93.67;100889.02;1839097;78;21140;-89
2021/01/16 08:12:46;;;;;;;30.05;13.93;;;;;;;-7.55;90.80;100888.11;1830862;78;21156;-90
2021/01/16 08:15:17;;;;;;;30.95;14.30;;;;;;;-7.74;89.02;100894.37;1802414;79;21468;-90
2021/01/16 08:17:47;;;;;;;27.30;11.95;;;;;;;-7.91;89.80;100886.68;1762811;81;21198;-90
2021/01/16 08:20:29;;;;;;;22.58;10.90;;;;;;;-7.94;90.67;100884.98;1762702;80;21379;-90
2021/01/16 08:22:58;;;;;;;28.77;13.18;;;;;;;-7.86;91.22;100890.50;1773331;79;22218;-89
2021/01/16 08:25:31;;;;;;;30.17;12.55;;;;;;;-7.78;90.69;100888.45;1769641;80;21170;-89
2021/01/16 08:28:04;;;;;;;30.15;15.98;;;;;;;-7.71;90.97;100891.84;1762478;81;21110;-88
2021/01/16 08:30:35;;;;;;;27.65;15.05;;;;;;;-7.62;90.74;100885.99;1772787;79;21147;-89
2021/01/16 08:33:12;;;;;;;29.37;14.18;;;;;;;-7.55;89.72;100885.17;1776546;79;23919;-90
2021/01/16 08:35:48;;;;;;;29.35;13.28;;;;;;;-7.50;90.00;100886.03;1762524;80;21058;-90
2021/01/16 08:38:21;;;;;;;26.68;14.00;;;;;;;-7.45;89.87;100886.05;1775574;80;21188;-90
2021/01/16 08:41:02;;;;;;;26.48;13.72;;;;;;;-7.40;90.08;100891.95;1786409;80;21253;-89
2021/01/16 08:43:38;;;;;;;23.60;14.07;;;;;;;-7.38;89.91;100897.87;1786455;80;21596;-89
2021/01/16 08:46:34;;;;;;;30.62;16.10;;;;;;;-7.33;89.74;100899.16;1778981;79;21333;-90
2021/01/16 08:49:15;;;;;;;27.22;14.63;;;;;;;-7.31;89.59;100903.81;1763397;79;21150;-90
2021/01/16 08:51:52;;;;;;;34.10;16.70;;;;;;;-7.26;89.31;100898.77;1762568;81;21467;-88
2021/01/16 08:54:24;;;;;;;29.20;15.05;;;;;;;-7.26;88.88;100897.07;1774675;79;21165;-88
2021/01/16 09:01:17;;;;;;;24.55;12.35;;;;;;;-7.08;88.39;100898.80;1778612;80;21138;-91
2021/01/16 09:08:25;;;;;;;26.35;14.28;;;;;;;-6.85;87.69;100896.75;1763014;81;21138;-91
2021/01/16 09:19:32;;;;;;;25.55;13.68;;;;;;;-6.37;86.05;100886.17;1795051;80;20972;-93
2021/01/16 09:26:27;;;;;;;31.17;17.30;;;;;;;-6.30;84.27;100884.92;1767627;80;21028;-92
2021/01/16 09:33:24;;;;;;;27.82;14.73;;;;;;;-6.28;83.91;100877.73;1764479;81;21155;-92
2021/01/16 09:40:16;;;;;;;28.38;14.85;;;;;;;-6.22;83.88;100868.84;1764375;81;21019;-94
2021/01/16 09:50:07;;;;;;;26.65;14.28;;;;;;;-6.02;83.28;100870.51;1769210;79;20990;-94
2021/01/16 09:52:55;;;;;;;26.23;14.63;;;;;;;-5.97;84.25;100875.54;1787161;78;22279;-94
2021/01/16 10:04:22;;;;;;;28.60;14.30;;;;;;;-5.82;84.41;100868.30;1820798;78;20998;-94
2021/01/16 10:06:51;;;;;;;21.73;12.03;;;;;;;-5.72;84.00;100877.13;1827430;78;21140;-88
2021/01/16 10:09:21;;;;;;;27.10;15.20;;;;;;;-5.63;84.03;100877.53;1825067;78;21364;-88
2021/01/16 10:11:49;;;;;;;24.05;14.47;;;;;;;-5.51;84.18;100875.38;1773434;79;21651;-88
2021/01/16 10:17:24;;;;;;;24.60;13.78;;;;;;;-5.44;82.60;100850.37;1841315;78;21849;-87
2021/01/16 10:20:01;;;;;;;26.57;15.75;;;;;;;-5.47;82.65;100850.82;1815759;79;21119;-88
2021/01/16 10:22:34;;;;;;;29.65;17.35;;;;;;;-5.46;81.97;100848.70;1807463;79;21617;-88
2021/01/16 10:25:12;;;;;;;26.20;15.43;;;;;;;-5.45;82.72;100851.66;1816680;79;20996;-88
2021/01/16 10:27:53;;;;;;;26.00;14.43;;;;;;;-5.36;82.33;100854.13;1816755;79;21433;-88
2021/01/16 10:30:29;;;;;;;26.17;13.35;;;;;;;-5.28;82.19;100845.21;1816773;79;21143;-88
2021/01/16 10:33:07;;;;;;;28.47;14.40;;;;;;;-5.16;82.17;100843.03;1813069;79;21163;-88
2021/01/16 10:35:38;;;;;;;22.70;12.10;;;;;;;-5.12;79.79;100843.00;1808109;79;22257;-87
2021/01/16 10:38:11;;;;;;;19.23;10.93;;;;;;;-5.18;78.66;100848.53;1816508;79;21155;-88
2021/01/16 10:40:51;;;;;;;18.25;10.03;;;;;;;-5.26;78.40;100840.54;1748502;81;21196;-88
2021/01/16 10:43:20;;;;;;;22.17;12.25;;;;;;;-5.27;78.63;100838.02;1777645;80;21068;-86
2021/01/16 10:46:12;;;;;;;19.60;12.00;;;;;;;-5.23;78.80;100825.70;1743761;80;21108;-87
2021/01/16 10:48:41;;;;;;;21.80;13.28;;;;;;;-5.19;78.58;100825.25;1716100;83;21379;-87
2021/01/16 10:51:10;;;;;;;20.37;12.37;;;;;;;-5.15;78.67;100821.86;1749659;81;21189;-87
2021/01/16 10:53:41;;;;;;;21.40;12.43;;;;;;;-5.08;78.14;100819.69;1749549;82;21525;-87
2021/01/16 10:56:16;;;;;;;25.77;13.40;;;;;;;-5.11;77.68;100820.56;1749730;82;21603;-88
2021/01/16 10:58:44;;;;;;;24.57;14.47;;;;;;;-5.18;78.29;100820.19;1749645;82;21120;-87
2021/01/16 11:01:15;;;;;;;25.35;13.70;;;;;;;-5.21;78.77;100824.45;1755305;81;21543;-86
2021/01/16 11:03:44;;;;;;;30.23;15.43;;;;;;;-5.17;81.20;100814.27;1718360;83;25132;-87
2021/01/16 11:06:16;;;;;;;;;;;;;;;-5.16;78.10;100818.91;1752226;82;21608;-86
2021/01/16 11:08:48;;;;;;;22.40;13.83;;;;;;;-5.31;77.24;100827.45;1716405;83;20895;-86
2021/01/16 11:11:26;;;;;;;22.07;12.20;;;;;;;-5.38;77.75;100821.58;1741934;82;21453;-87
2021/01/16 11:13:55;;;;;;;34.90;17.12;;;;;;;-5.37;78.15;100818.61;1747758;82;21212;-88
2021/01/16 11:16:24;;;;;;;28.10;15.63;;;;;;;-5.37;77.73;100819.87;1742495;82;21228;-88
2021/01/16 11:18:59;;;;;;;30.75;15.90;;;;;;;-5.39;77.82;100818.62;1738883;81;21191;-89
2021/01/16 11:21:39;;;;;;;23.98;12.60;;;;;;;-5.35;77.44;100821.98;1745375;81;21148;-89
2021/01/16 11:24:54;;;;;;;27.95;15.23;;;;;;;-5.41;76.92;100818.61;1738758;80;21155;-87
2021/01/16 11:27:27;;;;;;;27.93;14.40;;;;;;;-5.44;76.86;100814.84;1785547;79;21208;-87
2021/01/16 11:30:06;;;;;;;22.50;12.35;;;;;;;-5.48;76.73;100823.31;1800446;79;21116;-87
2021/01/16 11:32:37;;;;;;;23.95;12.90;;;;;;;-5.52;76.91;100825.46;1790750;79;21151;-88
2021/01/16 11:35:10;;;;;;;27.73;16.25;;;;;;;-5.53;77.21;100821.23;1738524;82;21228;-87
2021/01/16 11:40:58;;;;;;;25.55;14.90;;;;;;;-5.43;78.32;100826.69;1841388;78;22249;-89
2021/01/16 11:43:28;;;;;;;30.12;16.90;;;;;;;-5.47;77.92;100833.88;1816825;79;21131;-87
2021/01/16 11:46:07;;;;;;;29.27;16.20;;;;;;;-5.55;78.36;100829.27;1810973;78;26315;-87
2021/01/16 11:48:39;;;;;;;30.50;16.60;;;;;;;-5.62;78.47;100828.48;1813692;79;21184;-87
2021/01/16 11:51:22;;;;;;;31.35;16.65;;;;;;;-5.71;78.66;100830.61;1812247;78;21519;-88
2021/01/16 11:53:53;;;;;;;29.10;15.50;;;;;;;-5.80;79.04;100827.28;1810899;79;21136;-89
2021/01/16 11:56:25;;;;;;;;;;;;;;;-5.85;79.93;100837.44;1801803;79;21123;-88
2021/01/16 11:58:54;;;;;;;30.48;15.70;;;;;;;-5.90;80.56;100834.09;1803515;79;22273;-88
2021/01/16 12:01:22;;;;;;;24.18;14.18;;;;;;;-5.88;81.31;100828.56;1806385;78;21366;-87
2021/01/16 12:03:52;;;;;;;24.37;14.68;;;;;;;-5.82;81.38;100826.44;1816060;79;21165;-88
2021/01/16 12:06:21;;;;;;;30.70;16.37;;;;;;;-5.82;81.44;100824.76;1785592;78;21559;-88
2021/01/16 12:08:51;;;;;;;29.00;16.32;;;;;;;-5.82;81.28;100837.85;1773307;80;21148;-88
2021/01/16 12:11:19;;;;;;;26.33;14.90;;;;;;;-5.88;81.57;100831.97;1793858;78;21674;-88
2021/01/16 12:13:50;;;;;;;22.20;12.68;;;;;;;-5.84;82.21;100842.94;1816794;78;21182;-88
2021/01/16 12:16:19;;;;;;;26.87;15.72;;;;;;;-5.78;82.33;100844.18;1816731;79;21115;-88
2021/01/16 12:19:19;;;;;;;26.00;15.48;;;;;;;-5.74;82.36;100850.95;1816671;79;21095;-87
2021/01/16 12:26:15;;;;;;;24.23;14.58;;;;;;;-5.67;82.59;100849.20;1725139;80;21273;-90
2021/01/16 12:33:06;;;;;;;23.18;13.85;;;;;;;-5.82;82.54;100845.46;1755022;81;21167;-88
2021/01/16 12:36:07;;;;;;;22.37;13.98;;;;;;;-5.85;83.30;100846.32;1740377;82;21144;-88